Hlavní strana
METAR-TAF:

METAR-TAF

Letiště :

Trollhättan-Vänersborg, Švédsko

zeměpisná šířka: 58-19N, zeměpisná délka: 012-21E, výška: 41 m

Aktuální stav počasí

Zpráva byla vytvořena před 12 minutami, v 22:20 UTC
Jihojihozápadní vítr 10 kt, proměnlivý mezi jižním a západojihozápadním
Teplota 2°C
Vlhkost vzduchu 80%
Tlak 1041 hPa
Viditelnost 10 km a více

METAR: ESGT 222220Z AUTO 21010KT 180V240 9999 OVC013/// 02/M01 Q1041

Čas: 23:32 (22:32 UTC)

Předpověď počasí

Zpráva byla vytvořena před 5 hodinami a 2 minutami, v 17:30 UTC
Předpověď platná od 22 v 18 UTC do 22 v 20 UTC
Jihojihozápadní vítr 8 kt
Viditelnost 10 km a více
Polojasno ve výšce 4500 ft

TAF: ESGT 221730Z 2218/2220 21008KT 9999 SCT045

Stav a předpovědi počasí z více než 4 000 letišť (zprávy METAR a TAF).

Červené a žluté tečky na mapě představují dostupné meteorologické stanice.

Když kurzor umístíte na tečku, zobrazí se název stanice.

Pak kliknutím zobrazíte stav a předpověď počasí.

Chcete-li změnit mapu, kliknutím na zelené tlačítko se znaménkem +mapu přiblížíte, kliknutím na zelené tlačítko se znaménkem – mapu oddálíte a kliknutím na zelené šipky přejdete na sousední mapy.


METAR-TAF: